createdAt,value
2022-10-15T00:01:11.389Z,0.00
2022-10-15T00:06:12.529Z,0.00
2022-10-15T00:11:13.857Z,0.00
2022-10-15T00:16:16.860Z,0.00
2022-10-15T00:21:16.968Z,0.00
2022-10-15T00:26:16.087Z,0.00
2022-10-15T00:31:17.210Z,0.00
2022-10-15T00:36:19.944Z,0.00
2022-10-15T00:41:20.100Z,0.00
2022-10-15T00:46:19.206Z,0.00
2022-10-15T00:51:21.318Z,0.00
2022-10-15T00:56:20.617Z,0.00
2022-10-15T01:01:22.758Z,0.00
2022-10-15T01:06:22.858Z,0.00
2022-10-15T01:11:22.208Z,0.00
2022-10-15T01:16:24.358Z,0.00
2022-10-15T01:21:23.435Z,0.00
2022-10-15T01:26:24.755Z,0.00
2022-10-15T01:31:25.840Z,0.00
2022-10-15T01:36:26.944Z,0.00
2022-10-15T01:41:28.252Z,0.00
2022-10-15T01:46:30.572Z,0.00
2022-10-15T01:51:30.666Z,0.00
2022-10-15T01:56:29.027Z,0.00
2022-10-15T02:01:30.579Z,0.00
2022-10-15T02:06:29.720Z,0.00
2022-10-15T02:11:31.801Z,0.00
2022-10-15T02:16:30.896Z,0.00
2022-10-15T02:21:32.255Z,0.00
2022-10-15T02:26:34.336Z,0.00
2022-10-15T02:31:34.465Z,0.00
2022-10-15T02:36:33.555Z,0.00
2022-10-15T02:41:34.641Z,0.00
2022-10-15T02:46:35.739Z,0.00
2022-10-15T02:51:37.096Z,0.00
2022-10-15T02:56:38.191Z,0.00
2022-10-15T03:01:39.278Z,0.00
2022-10-15T03:06:40.525Z,0.00
2022-10-15T03:11:43.616Z,0.00
2022-10-15T03:16:42.932Z,0.00
2022-10-15T03:21:44.995Z,0.00
2022-10-15T03:26:44.076Z,0.00
2022-10-15T03:31:45.177Z,0.00
2022-10-15T03:36:46.284Z,0.00
2022-10-15T03:41:47.902Z,0.00
2022-10-15T03:46:46.986Z,0.00
2022-10-15T03:51:48.076Z,0.00
2022-10-15T03:56:49.162Z,0.00
2022-10-15T04:01:50.465Z,0.00
2022-10-15T04:06:51.809Z,0.00
2022-10-15T04:11:53.102Z,0.00
2022-10-15T04:16:54.200Z,0.00
2022-10-15T04:21:56.363Z,0.00
2022-10-15T04:26:55.458Z,0.00
2022-10-15T04:31:56.729Z,0.00
2022-10-15T04:36:57.841Z,0.00
2022-10-15T04:41:59.187Z,0.00
2022-10-15T04:47:01.285Z,0.00
2022-10-15T04:52:02.405Z,0.00
2022-10-15T04:57:01.842Z,0.00
2022-10-15T05:02:02.984Z,0.00
2022-10-15T05:07:04.226Z,0.00
2022-10-15T05:12:05.598Z,0.00
2022-10-15T05:17:06.991Z,0.00
2022-10-15T05:22:09.105Z,0.00
2022-10-15T05:27:08.186Z,0.00
2022-10-15T05:32:10.319Z,0.00
2022-10-15T05:37:10.443Z,0.00
2022-10-15T05:42:13.417Z,0.00
2022-10-15T05:47:10.769Z,0.00
2022-10-15T05:52:12.027Z,0.00
2022-10-15T05:57:13.099Z,5.62
2022-10-15T06:02:14.587Z,5.62
2022-10-15T06:07:13.719Z,5.62
2022-10-15T06:12:15.813Z,11.25
2022-10-15T06:17:15.398Z,11.25
2022-10-15T06:22:14.501Z,11.25
2022-10-15T06:27:17.637Z,16.88
2022-10-15T06:32:17.747Z,28.12
2022-10-15T06:37:17.831Z,28.12
2022-10-15T06:42:16.990Z,33.75
2022-10-15T06:47:18.075Z,50.62
2022-10-15T06:52:21.178Z,56.25
2022-10-15T06:57:21.329Z,56.25
2022-10-15T07:02:20.695Z,56.25
2022-10-15T07:07:21.900Z,61.88
2022-10-15T07:12:23.272Z,73.12
2022-10-15T07:17:24.447Z,78.75
2022-10-15T07:22:26.960Z,84.38
2022-10-15T07:27:27.158Z,101.25
2022-10-15T07:32:27.272Z,123.75
2022-10-15T07:37:26.399Z,151.88
2022-10-15T07:42:27.527Z,163.12
2022-10-15T07:47:28.686Z,180.00
2022-10-15T07:52:29.837Z,168.75
2022-10-15T07:57:30.924Z,157.50
2022-10-15T08:02:32.089Z,163.12
2022-10-15T08:07:33.210Z,202.50
2022-10-15T08:12:34.325Z,241.88
2022-10-15T08:17:35.514Z,270.00
2022-10-15T08:22:36.617Z,298.12
2022-10-15T08:27:38.304Z,320.62
2022-10-15T08:32:38.393Z,315.00
2022-10-15T08:37:37.518Z,326.25
2022-10-15T08:42:42.577Z,354.38
2022-10-15T08:47:40.768Z,343.12
2022-10-15T08:52:40.937Z,326.25
2022-10-15T08:57:39.056Z,320.62
2022-10-15T09:02:40.223Z,331.88
2022-10-15T09:07:42.358Z,326.25
2022-10-15T09:12:42.450Z,331.88
2022-10-15T09:17:41.572Z,337.50
2022-10-15T09:22:42.698Z,331.88
2022-10-15T09:27:43.798Z,331.88
2022-10-15T09:32:47.515Z,320.62
2022-10-15T09:37:45.479Z,337.50
2022-10-15T09:42:44.601Z,348.75
2022-10-15T09:47:45.739Z,337.50
2022-10-15T09:52:47.055Z,309.38
2022-10-15T09:57:47.187Z,281.25
2022-10-15T10:02:48.279Z,236.25
2022-10-15T10:07:49.439Z,253.12
2022-10-15T10:12:50.693Z,264.38
2022-10-15T10:17:51.987Z,258.75
2022-10-15T10:22:53.227Z,309.38
2022-10-15T10:27:55.310Z,315.00
2022-10-15T10:32:54.449Z,360.00
2022-10-15T10:37:55.715Z,365.62
2022-10-15T10:42:59.552Z,365.62
2022-10-15T10:47:57.769Z,354.38
2022-10-15T10:52:56.978Z,360.00
2022-10-15T10:57:59.062Z,337.50
2022-10-15T11:02:59.157Z,315.00
2022-10-15T11:07:58.248Z,303.75
2022-10-15T11:12:59.540Z,286.88
2022-10-15T11:18:00.797Z,281.25
2022-10-15T11:23:02.081Z,286.88
2022-10-15T11:28:04.254Z,264.38
2022-10-15T11:33:08.527Z,219.38
2022-10-15T11:38:03.465Z,185.62
2022-10-15T11:43:04.678Z,202.50
2022-10-15T11:48:05.840Z,230.62
2022-10-15T11:53:07.079Z,253.12
2022-10-15T11:58:08.267Z,258.75
2022-10-15T12:03:10.417Z,281.25
2022-10-15T12:08:10.692Z,270.00
2022-10-15T12:13:11.809Z,270.00
2022-10-15T12:18:10.944Z,320.62
2022-10-15T12:23:12.065Z,410.62
2022-10-15T12:28:14.163Z,461.25
2022-10-15T12:33:17.174Z,393.75
2022-10-15T12:38:14.266Z,405.00
2022-10-15T12:43:15.410Z,388.12
2022-10-15T12:48:16.536Z,337.50
2022-10-15T12:53:17.656Z,275.62
2022-10-15T12:58:18.762Z,281.25
2022-10-15T13:03:19.955Z,281.25
2022-10-15T13:08:21.149Z,382.50
2022-10-15T13:13:23.262Z,303.75
2022-10-15T13:18:22.371Z,371.25
2022-10-15T13:23:31.400Z,360.00
2022-10-15T13:28:25.468Z,365.62
2022-10-15T13:33:24.589Z,376.88
2022-10-15T13:38:26.712Z,376.88
2022-10-15T13:43:25.874Z,376.88
2022-10-15T13:48:27.998Z,376.88
2022-10-15T13:53:27.099Z,388.12
2022-10-15T13:58:28.218Z,388.12
2022-10-15T14:03:29.347Z,264.38
2022-10-15T14:08:31.466Z,433.12
2022-10-15T14:13:30.759Z,382.50
2022-10-15T14:18:31.930Z,213.75
2022-10-15T14:23:35.069Z,213.75
2022-10-15T14:28:34.191Z,230.62
2022-10-15T14:33:35.353Z,225.00
2022-10-15T14:38:36.451Z,213.75
2022-10-15T14:43:37.550Z,202.50
2022-10-15T14:48:38.668Z,180.00
2022-10-15T14:53:40.771Z,168.75
2022-10-15T14:58:40.845Z,151.88
2022-10-15T15:03:39.948Z,146.25
2022-10-15T15:08:41.037Z,146.25
2022-10-15T15:13:43.138Z,146.25
2022-10-15T15:18:42.311Z,135.00
2022-10-15T15:23:44.417Z,118.12
2022-10-15T15:28:45.625Z,106.88
2022-10-15T15:33:44.726Z,90.00
2022-10-15T15:38:45.860Z,84.38
2022-10-15T15:43:46.994Z,61.88
2022-10-15T15:48:48.118Z,56.25
2022-10-15T15:53:49.230Z,56.25
2022-10-15T15:58:51.349Z,56.25
2022-10-15T16:03:50.457Z,45.00
2022-10-15T16:08:51.578Z,45.00
2022-10-15T16:13:53.716Z,39.38
2022-10-15T16:18:51.924Z,28.12
2022-10-15T16:23:53.134Z,22.50
2022-10-15T16:28:54.259Z,11.25
2022-10-15T16:33:55.377Z,5.62
2022-10-15T16:38:57.473Z,0.00
2022-10-15T16:43:56.680Z,0.00
2022-10-15T16:48:57.779Z,0.00
2022-10-15T16:53:58.892Z,0.00
2022-10-15T16:58:59.991Z,0.00
2022-10-15T17:04:01.093Z,0.00
2022-10-15T17:09:02.388Z,0.00
2022-10-15T17:14:03.521Z,0.00
2022-10-15T17:19:04.824Z,0.00
2022-10-15T17:24:07.004Z,0.00
2022-10-15T17:29:06.983Z,0.00
2022-10-15T17:34:07.388Z,0.00
2022-10-15T17:39:07.605Z,0.00
2022-10-15T17:44:07.963Z,0.00
2022-10-15T17:49:07.168Z,0.00
2022-10-15T17:54:08.276Z,0.00
2022-10-15T17:59:10.392Z,0.00
2022-10-15T18:04:09.493Z,0.00
2022-10-15T18:09:10.709Z,0.00
2022-10-15T18:14:11.925Z,0.00
2022-10-15T18:19:13.121Z,0.00
2022-10-15T18:24:14.490Z,0.00
2022-10-15T18:29:16.846Z,0.00
2022-10-15T18:34:16.295Z,0.00
2022-10-15T18:39:18.622Z,0.00
2022-10-15T18:44:18.030Z,0.00
2022-10-15T18:49:19.273Z,0.00
2022-10-15T18:54:21.046Z,0.00
2022-10-15T18:59:21.529Z,0.00
2022-10-15T19:04:21.881Z,0.00
2022-10-15T19:09:21.258Z,0.00
2022-10-15T19:14:22.403Z,0.00
2022-10-15T19:19:24.521Z,0.00
2022-10-15T19:24:23.821Z,0.00
2022-10-15T19:29:25.939Z,0.00
2022-10-15T19:34:25.035Z,0.00
2022-10-15T19:39:26.160Z,0.00
2022-10-15T19:44:29.142Z,0.00
2022-10-15T19:49:31.330Z,0.00
2022-10-15T19:54:31.670Z,0.00
2022-10-15T19:59:30.309Z,0.00
2022-10-15T20:04:31.509Z,0.00
2022-10-15T20:09:30.619Z,0.00
2022-10-15T20:14:31.702Z,0.00
2022-10-15T20:19:33.816Z,0.00
2022-10-15T20:24:33.935Z,0.00
2022-10-15T20:29:33.029Z,0.00
2022-10-15T20:34:34.170Z,0.00
2022-10-15T20:39:37.320Z,0.00
2022-10-15T20:44:36.730Z,0.00
2022-10-15T20:49:37.855Z,0.00
2022-10-15T20:54:40.006Z,0.00
2022-10-15T20:59:40.199Z,0.00
2022-10-15T21:04:39.557Z,0.00
2022-10-15T21:09:41.654Z,0.00
2022-10-15T21:14:42.785Z,0.00
2022-10-15T21:19:40.899Z,0.00
2022-10-15T21:24:42.245Z,0.00
2022-10-15T21:29:44.365Z,0.00
2022-10-15T21:34:43.484Z,0.00
2022-10-15T21:39:44.659Z,0.00
2022-10-15T21:44:45.816Z,0.00
2022-10-15T21:49:47.928Z,0.00
2022-10-15T21:54:47.044Z,0.00
2022-10-15T21:59:49.130Z,0.00
2022-10-15T22:04:49.247Z,0.00
2022-10-15T22:09:49.370Z,0.00
2022-10-15T22:14:49.698Z,0.00
2022-10-15T22:19:50.136Z,0.00
2022-10-15T22:24:49.412Z,0.00
2022-10-15T22:29:51.686Z,0.00
2022-10-15T22:34:50.796Z,0.00
2022-10-15T22:39:52.902Z,0.00
2022-10-15T22:44:52.002Z,0.00
2022-10-15T22:49:53.816Z,0.00
2022-10-15T22:54:52.899Z,0.00
2022-10-15T22:59:57.164Z,0.00
2022-10-15T23:04:54.130Z,0.00
2022-10-15T23:09:55.239Z,0.00
2022-10-15T23:14:56.347Z,0.00
2022-10-15T23:19:58.618Z,0.00
2022-10-15T23:24:58.684Z,0.00
2022-10-15T23:30:14.095Z,0.00
2022-10-15T23:34:59.729Z,0.00
2022-10-15T23:39:58.837Z,0.00
2022-10-15T23:44:59.940Z,0.00
2022-10-15T23:50:01.173Z,0.00
2022-10-15T23:55:03.237Z,0.00
